Wan I Gan, Montana
Current Conditions -  °F | °C
As of 3:53 PM on Monday 24 Nov 2014 (Local Time) from KLVM Reporting Station
Clear Clear  
Wind Chill: 26°   Ceiling: Unl
Heat Index: 37°   Visibility: 10mi
Dew Point: 12°   Wind: 21mph
Humidity: 36%   Direction: 260°W
Pressure: 30.14"   Gusts: 30mph
Location:  45.4304°N, 110.521°W
Report Text: KLVM 242253Z AUTO 26018G26KT 10SM CLR 03/M11 A3014 RMK AO2 PK WND 27028/2154 SLP230 T00281111
Loading
Personal Weather Stations






























Interactive Weather Map New forecast layout! Learn more

10-Day Weather Forecast

Advertisements
Track Severe Weather on mobile